map of ADS home
ADS - Airport
Location
City:  Dallas, Texas, United States
Name:Addison Airport
ICAO:KADS
IATA:ADS
FAA LID:ADS

Details
Type:Airport (Airfield)
Use:Public/Civil, International (customs landing rights)
Latitude:3258'07"N (32.968556)
Longitude:9650'11"W (-96.836443)
Datum:WGS 1984
Elevation:644 ft (196 m)
Variation:3.31E (WMM2015 magnetic declination)
-0.11 annual change
Runways:1
Longest:7203 × 100 ft (2195 × 30.5 m), paved

Time
Time Zone:UTC-6 (DST-5)
Local Time:

Weather
METAR:KADS 111447Z 24004KT 13SM SKC 10/M05 A3026

Related Locations
Nearby:
Farthest:RRG: 10917 mi / 17569 km
Plaine Corail [Sir Gatan Duval Airport (Plaine Corail Airport)], Rodrigues Island, MU

Find:

   beyond  
but within

Other Information
Maps:
NOTAMs:
Links:
Sources:

  
flag of United States
flag of Texas
flag of Dallas
  

Airport Diagram

Airport diagram for ADS

Airport diagram PDF

Sectional Chart

Flight Planning
at skyvector.com

Satellite Image

Google Maps Satellite view

 

Copyright © 2004-2017 Karl L. Swartz. All rights reserved.
The Great Circle Mapper name and logo are trademarks of the Great Circle Mapper.
All other trademarks mentioned herein belong to their respective owners.
Please see credits for attibutions and further copyright information.

  Follow gcmap on Facebook Follow gcmap on Twitter Follow gcmap on Google+ GCmap on LinkedIn

hCard Microformat

Geo Microformat